Verden, Oklahoma
Current Conditions -  °F | °C
As of 4:35 PM on Monday 24 Nov 2014 (Local Time) from KCHK Reporting Station
Clear Clear  
Wind Chill: 54°   Ceiling: Unl
Heat Index: 54°   Visibility: 10mi
Dew Point: 27°   Wind: 10mph
Humidity: 35%   Direction: 320°NW
Pressure: 30.01"   Gusts: NA
Location:  35.08°N, 98.09°W
Report Text: KCHK 242235Z AUTO 32009KT 10SM CLR 12/M03 A3001 RMK AO2
Loading
Personal Weather Stations






























Interactive Weather Map New forecast layout! Learn more

10-Day Weather Forecast

Advertisements
Track Severe Weather on mobile